Main page
METAR-TAF:

METAR-TAF

Airports :

Salamanca, Spain

Salamanca Airport

latitude: 40-57N, longitude: 005-30W, elevation: 793 m

Current weather observation

The report was made 8 hours and 4 minutes ago, at 18:00 UTC
Wind 10 kt from the West/Southwest
Temperature 20°C
Humidity 60%
Pressure 1016 hPa
Visibility 10 km or more
Few clouds at a height of 2800 ft

METAR: LESA 281800Z 25010KT 9999 FEW028 20/12 Q1016

Time: 04:04 (02:04 UTC)

Forecast

The report was made 3 hours and 4 minutes ago, at 23:00 UTC
Forecast valid from 29 at 00 UTC to 29 at 24 UTC
Wind 6 kt from the West/Southwest
Visibility 10 km or more
no clouds below 1500 m and no cumulonimbus

TAF: LESA 282300Z 2900/2924 24006KT CAVOK TX22/2915Z TN13/2905Z

Weather observations and forecasts of more than 4000 airports (METAR and TAF reports).

The available stations are represented by yellow and red dots on the map.

Hover mouse over dot to see the name of the station.

Then click to see weather observations and forecasts.

To change the map : click on the green buttons with a black cross to zoom in, on the green button with a dash to zoom out, or on the green arrows for adjacent maps.


METAR-TAF: